sensor_id;sensor_type;location;lat;lon;timestamp;temperature;humidity
32977;DHT22;47687;50.842;4.450;2022-07-03T00:01:34;17.50;99.90
32977;DHT22;47687;50.842;4.450;2022-07-03T00:03:59;17.40;99.90
32977;DHT22;47687;50.842;4.450;2022-07-03T00:06:26;17.50;99.90
32977;DHT22;47687;50.842;4.450;2022-07-03T00:08:52;17.40;99.90
32977;DHT22;47687;50.842;4.450;2022-07-03T00:11:19;17.50;99.90
32977;DHT22;47687;50.842;4.450;2022-07-03T00:13:45;17.50;99.90
32977;DHT22;47687;50.842;4.450;2022-07-03T00:16:10;17.50;99.90
32977;DHT22;47687;50.842;4.450;2022-07-03T00:18:36;17.60;99.90
32977;DHT22;47687;50.842;4.450;2022-07-03T00:21:08;17.60;99.90
32977;DHT22;47687;50.842;4.450;2022-07-03T00:23:47;17.60;99.90
32977;DHT22;47687;50.842;4.450;2022-07-03T00:26:19;17.70;99.90
32977;DHT22;47687;50.842;4.450;2022-07-03T00:28:45;17.70;99.90
32977;DHT22;47687;50.842;4.450;2022-07-03T00:31:11;17.80;99.90
32977;DHT22;47687;50.842;4.450;2022-07-03T00:33:38;17.80;99.90
32977;DHT22;47687;50.842;4.450;2022-07-03T00:36:04;17.80;99.90
32977;DHT22;47687;50.842;4.450;2022-07-03T00:38:31;17.80;99.90
32977;DHT22;47687;50.842;4.450;2022-07-03T00:40:57;17.90;99.90
32977;DHT22;47687;50.842;4.450;2022-07-03T00:43:25;17.90;99.90
32977;DHT22;47687;50.842;4.450;2022-07-03T00:45:51;17.90;99.90
32977;DHT22;47687;50.842;4.450;2022-07-03T00:48:18;17.80;99.90
32977;DHT22;47687;50.842;4.450;2022-07-03T00:50:47;17.80;99.90
32977;DHT22;47687;50.842;4.450;2022-07-03T00:53:13;17.80;99.90
32977;DHT22;47687;50.842;4.450;2022-07-03T00:55:39;17.80;99.90
32977;DHT22;47687;50.842;4.450;2022-07-03T00:58:08;17.80;99.90
32977;DHT22;47687;50.842;4.450;2022-07-03T01:00:39;17.90;99.90
32977;DHT22;47687;50.842;4.450;2022-07-03T01:03:07;18.00;99.90
32977;DHT22;47687;50.842;4.450;2022-07-03T01:05:43;18.10;99.90
32977;DHT22;47687;50.842;4.450;2022-07-03T01:11:32;18.20;99.90
32977;DHT22;47687;50.842;4.450;2022-07-03T01:16:58;17.90;99.90
32977;DHT22;47687;50.842;4.450;2022-07-03T01:19:41;18.00;99.90
32977;DHT22;47687;50.842;4.450;2022-07-03T01:28:08;18.10;98.20
32977;DHT22;47687;50.842;4.450;2022-07-03T01:30:41;17.90;97.60
32977;DHT22;47687;50.842;4.450;2022-07-03T01:33:11;17.80;97.30
32977;DHT22;47687;50.842;4.450;2022-07-03T01:35:39;17.80;97.00
32977;DHT22;47687;50.842;4.450;2022-07-03T01:38:08;17.70;96.40
32977;DHT22;47687;50.842;4.450;2022-07-03T01:40:37;17.70;96.30
32977;DHT22;47687;50.842;4.450;2022-07-03T01:43:05;17.70;96.50
32977;DHT22;47687;50.842;4.450;2022-07-03T01:45:34;17.60;96.20
32977;DHT22;47687;50.842;4.450;2022-07-03T01:48:01;17.60;96.20
32977;DHT22;47687;50.842;4.450;2022-07-03T01:50:29;17.60;96.20
32977;DHT22;47687;50.842;4.450;2022-07-03T01:52:56;17.50;95.80
32977;DHT22;47687;50.842;4.450;2022-07-03T01:55:24;17.60;96.00
32977;DHT22;47687;50.842;4.450;2022-07-03T01:57:51;17.60;96.20
32977;DHT22;47687;50.842;4.450;2022-07-03T02:00:19;17.60;96.10
32977;DHT22;47687;50.842;4.450;2022-07-03T02:03:02;17.50;96.20
32977;DHT22;47687;50.842;4.450;2022-07-03T02:05:36;17.40;96.40
32977;DHT22;47687;50.842;4.450;2022-07-03T02:08:08;17.40;96.50
32977;DHT22;47687;50.842;4.450;2022-07-03T02:10:51;17.50;96.50
32977;DHT22;47687;50.842;4.450;2022-07-03T02:13:22;17.50;96.30
32977;DHT22;47687;50.842;4.450;2022-07-03T02:15:52;17.50;96.20
32977;DHT22;47687;50.842;4.450;2022-07-03T02:18:29;17.50;96.50
32977;DHT22;47687;50.842;4.450;2022-07-03T02:21:15;17.50;96.50
32977;DHT22;47687;50.842;4.450;2022-07-03T02:24:17;17.60;96.60
32977;DHT22;47687;50.842;4.450;2022-07-03T02:26:50;17.50;96.60
32977;DHT22;47687;50.842;4.450;2022-07-03T02:29:20;17.50;97.00
32977;DHT22;47687;50.842;4.450;2022-07-03T02:32:02;17.40;97.10
32977;DHT22;47687;50.842;4.450;2022-07-03T02:34:31;17.40;97.60
32977;DHT22;47687;50.842;4.450;2022-07-03T02:37:06;17.40;97.40
32977;DHT22;47687;50.842;4.450;2022-07-03T02:39:43;17.30;97.60
32977;DHT22;47687;50.842;4.450;2022-07-03T02:42:19;17.40;97.90
32977;DHT22;47687;50.842;4.450;2022-07-03T02:44:51;17.40;97.90
32977;DHT22;47687;50.842;4.450;2022-07-03T02:52:34;17.40;98.00
32977;DHT22;47687;50.842;4.450;2022-07-03T02:57:41;17.50;98.10
32977;DHT22;47687;50.842;4.450;2022-07-03T03:00:10;17.50;98.30
32977;DHT22;47687;50.842;4.450;2022-07-03T03:02:54;17.50;98.20
32977;DHT22;47687;50.842;4.450;2022-07-03T03:10:53;17.30;98.40
32977;DHT22;47687;50.842;4.450;2022-07-03T03:13:26;17.20;98.70
32977;DHT22;47687;50.842;4.450;2022-07-03T03:16:05;17.10;98.70
32977;DHT22;47687;50.842;4.450;2022-07-03T03:18:34;17.30;98.70
32977;DHT22;47687;50.842;4.450;2022-07-03T03:21:03;17.30;98.50
32977;DHT22;47687;50.842;4.450;2022-07-03T03:23:48;17.20;98.70
32977;DHT22;47687;50.842;4.450;2022-07-03T03:26:26;17.30;98.80
32977;DHT22;47687;50.842;4.450;2022-07-03T03:28:58;17.30;98.70
32977;DHT22;47687;50.842;4.450;2022-07-03T03:31:24;17.40;98.80
32977;DHT22;47687;50.842;4.450;2022-07-03T03:33:50;17.50;98.90
32977;DHT22;47687;50.842;4.450;2022-07-03T03:36:19;17.50;98.60
32977;DHT22;47687;50.842;4.450;2022-07-03T03:38:46;17.40;98.50
32977;DHT22;47687;50.842;4.450;2022-07-03T03:41:12;17.40;98.50
32977;DHT22;47687;50.842;4.450;2022-07-03T03:43:38;17.40;98.50
32977;DHT22;47687;50.842;4.450;2022-07-03T03:46:04;17.40;98.50
32977;DHT22;47687;50.842;4.450;2022-07-03T03:48:33;17.30;98.60
32977;DHT22;47687;50.842;4.450;2022-07-03T03:51:01;17.20;99.00
32977;DHT22;47687;50.842;4.450;2022-07-03T03:53:28;17.20;99.10
32977;DHT22;47687;50.842;4.450;2022-07-03T03:58:31;17.20;99.30
32977;DHT22;47687;50.842;4.450;2022-07-03T04:00:58;17.20;99.40
32977;DHT22;47687;50.842;4.450;2022-07-03T04:03:25;17.10;99.70
32977;DHT22;47687;50.842;4.450;2022-07-03T04:05:51;17.00;99.90
32977;DHT22;47687;50.842;4.450;2022-07-03T04:08:17;17.10;99.90
32977;DHT22;47687;50.842;4.450;2022-07-03T04:10:42;17.20;99.90
32977;DHT22;47687;50.842;4.450;2022-07-03T04:13:08;17.30;99.90
32977;DHT22;47687;50.842;4.450;2022-07-03T04:15:33;17.30;99.90
32977;DHT22;47687;50.842;4.450;2022-07-03T04:17:59;17.40;99.90
32977;DHT22;47687;50.842;4.450;2022-07-03T04:20:25;17.40;99.90
32977;DHT22;47687;50.842;4.450;2022-07-03T04:22:50;17.40;99.90
32977;DHT22;47687;50.842;4.450;2022-07-03T04:25:17;17.30;99.90
32977;DHT22;47687;50.842;4.450;2022-07-03T04:27:43;17.30;99.90
32977;DHT22;47687;50.842;4.450;2022-07-03T04:30:09;17.30;99.90
32977;DHT22;47687;50.842;4.450;2022-07-03T04:32:38;17.30;99.90
32977;DHT22;47687;50.842;4.450;2022-07-03T04:35:04;17.30;99.90
32977;DHT22;47687;50.842;4.450;2022-07-03T04:37:30;17.30;99.90
32977;DHT22;47687;50.842;4.450;2022-07-03T04:39:56;17.70;99.50
32977;DHT22;47687;50.842;4.450;2022-07-03T04:42:22;18.40;98.90
32977;DHT22;47687;50.842;4.450;2022-07-03T04:44:47;19.30;97.50
32977;DHT22;47687;50.842;4.450;2022-07-03T04:47:13;20.30;95.90
32977;DHT22;47687;50.842;4.450;2022-07-03T04:49:40;21.20;94.10
32977;DHT22;47687;50.842;4.450;2022-07-03T04:52:06;22.00;92.80
32977;DHT22;47687;50.842;4.450;2022-07-03T04:54:32;22.40;92.00
32977;DHT22;47687;50.842;4.450;2022-07-03T04:56:58;22.40;91.50
32977;DHT22;47687;50.842;4.450;2022-07-03T04:59:24;22.30;91.40
32977;DHT22;47687;50.842;4.450;2022-07-03T05:01:49;22.70;90.80
32977;DHT22;47687;50.842;4.450;2022-07-03T05:04:19;22.50;90.50
32977;DHT22;47687;50.842;4.450;2022-07-03T05:06:44;21.10;91.80
32977;DHT22;47687;50.842;4.450;2022-07-03T05:09:10;21.10;92.60
32977;DHT22;47687;50.842;4.450;2022-07-03T05:11:36;21.70;92.00
32977;DHT22;47687;50.842;4.450;2022-07-03T05:14:03;22.60;90.90
32977;DHT22;47687;50.842;4.450;2022-07-03T05:16:29;23.30;89.80
32977;DHT22;47687;50.842;4.450;2022-07-03T05:18:55;22.80;89.50
32977;DHT22;47687;50.842;4.450;2022-07-03T05:21:20;22.10;90.50
32977;DHT22;47687;50.842;4.450;2022-07-03T05:23:46;21.20;91.80
32977;DHT22;47687;50.842;4.450;2022-07-03T05:26:12;21.30;91.90
32977;DHT22;47687;50.842;4.450;2022-07-03T05:28:37;21.80;91.40
32977;DHT22;47687;50.842;4.450;2022-07-03T05:31:03;21.20;91.80
32977;DHT22;47687;50.842;4.450;2022-07-03T05:33:29;20.70;92.80
32977;DHT22;47687;50.842;4.450;2022-07-03T05:35:56;20.60;93.20
32977;DHT22;47687;50.842;4.450;2022-07-03T05:38:22;20.40;93.50
32977;DHT22;47687;50.842;4.450;2022-07-03T05:41:06;20.00;94.10
32977;DHT22;47687;50.842;4.450;2022-07-03T05:43:31;19.10;95.60
32977;DHT22;47687;50.842;4.450;2022-07-03T05:45:57;19.00;95.90
32977;DHT22;47687;50.842;4.450;2022-07-03T05:48:23;18.70;96.50
32977;DHT22;47687;50.842;4.450;2022-07-03T05:50:48;18.40;97.50
32977;DHT22;47687;50.842;4.450;2022-07-03T05:53:14;18.40;98.20
32977;DHT22;47687;50.842;4.450;2022-07-03T05:55:40;18.30;98.40
32977;DHT22;47687;50.842;4.450;2022-07-03T05:58:06;18.60;98.00
32977;DHT22;47687;50.842;4.450;2022-07-03T06:00:31;18.70;98.10
32977;DHT22;47687;50.842;4.450;2022-07-03T06:02:57;18.70;98.40
32977;DHT22;47687;50.842;4.450;2022-07-03T06:05:23;18.80;98.40
32977;DHT22;47687;50.842;4.450;2022-07-03T06:07:48;18.40;99.00
32977;DHT22;47687;50.842;4.450;2022-07-03T06:10:15;18.30;99.60
32977;DHT22;47687;50.842;4.450;2022-07-03T06:12:41;18.10;99.90
32977;DHT22;47687;50.842;4.450;2022-07-03T06:15:06;18.00;99.90
32977;DHT22;47687;50.842;4.450;2022-07-03T06:17:34;18.20;99.90
32977;DHT22;47687;50.842;4.450;2022-07-03T06:20:02;18.40;99.90
32977;DHT22;47687;50.842;4.450;2022-07-03T06:22:28;18.40;99.90
32977;DHT22;47687;50.842;4.450;2022-07-03T06:24:53;18.40;99.90
32977;DHT22;47687;50.842;4.450;2022-07-03T06:27:19;18.10;99.90
32977;DHT22;47687;50.842;4.450;2022-07-03T06:29:44;18.20;99.90
32977;DHT22;47687;50.842;4.450;2022-07-03T06:32:10;18.20;99.90
32977;DHT22;47687;50.842;4.450;2022-07-03T06:34:35;18.40;99.90
32977;DHT22;47687;50.842;4.450;2022-07-03T06:37:01;18.30;99.90
32977;DHT22;47687;50.842;4.450;2022-07-03T06:39:27;18.40;99.90
32977;DHT22;47687;50.842;4.450;2022-07-03T06:41:52;18.70;99.90
32977;DHT22;47687;50.842;4.450;2022-07-03T06:44:18;19.40;99.90
32977;DHT22;47687;50.842;4.450;2022-07-03T06:46:44;20.00;99.30
32977;DHT22;47687;50.842;4.450;2022-07-03T06:49:09;20.20;98.30
32977;DHT22;47687;50.842;4.450;2022-07-03T06:51:35;19.90;98.50
32977;DHT22;47687;50.842;4.450;2022-07-03T06:54:01;19.60;99.20
32977;DHT22;47687;50.842;4.450;2022-07-03T06:56:26;20.00;99.00
32977;DHT22;47687;50.842;4.450;2022-07-03T06:58:52;20.50;98.20
32977;DHT22;47687;50.842;4.450;2022-07-03T07:01:17;20.50;97.60
32977;DHT22;47687;50.842;4.450;2022-07-03T07:03:43;20.70;97.60
32977;DHT22;47687;50.842;4.450;2022-07-03T07:06:09;21.00;97.00
32977;DHT22;47687;50.842;4.450;2022-07-03T07:08:34;20.70;97.30
32977;DHT22;47687;50.842;4.450;2022-07-03T07:11:00;20.20;97.70
32977;DHT22;47687;50.842;4.450;2022-07-03T07:13:27;19.70;98.60
32977;DHT22;47687;50.842;4.450;2022-07-03T07:15:52;20.00;98.60
32977;DHT22;47687;50.842;4.450;2022-07-03T07:18:18;20.10;98.60
32977;DHT22;47687;50.842;4.450;2022-07-03T07:20:44;20.20;98.00
32977;DHT22;47687;50.842;4.450;2022-07-03T07:23:09;20.00;98.50
32977;DHT22;47687;50.842;4.450;2022-07-03T07:25:36;19.90;98.30
32977;DHT22;47687;50.842;4.450;2022-07-03T07:28:01;19.50;99.10
32977;DHT22;47687;50.842;4.450;2022-07-03T07:30:27;19.10;99.90
32977;DHT22;47687;50.842;4.450;2022-07-03T07:32:53;18.90;99.90
32977;DHT22;47687;50.842;4.450;2022-07-03T07:35:18;19.20;99.90
32977;DHT22;47687;50.842;4.450;2022-07-03T07:37:44;19.60;99.90
32977;DHT22;47687;50.842;4.450;2022-07-03T07:40:13;20.10;99.70
32977;DHT22;47687;50.842;4.450;2022-07-03T07:42:38;20.40;99.00
32977;DHT22;47687;50.842;4.450;2022-07-03T07:45:04;20.40;98.60
32977;DHT22;47687;50.842;4.450;2022-07-03T07:47:30;20.40;98.50
32977;DHT22;47687;50.842;4.450;2022-07-03T07:49:55;20.20;98.60
32977;DHT22;47687;50.842;4.450;2022-07-03T07:52:21;20.00;98.90
32977;DHT22;47687;50.842;4.450;2022-07-03T07:54:49;20.00;99.10
32977;DHT22;47687;50.842;4.450;2022-07-03T07:57:15;20.00;98.90
32977;DHT22;47687;50.842;4.450;2022-07-03T07:59:40;19.80;99.20
32977;DHT22;47687;50.842;4.450;2022-07-03T08:02:06;19.70;99.60
32977;DHT22;47687;50.842;4.450;2022-07-03T08:04:50;19.40;99.90
32977;DHT22;47687;50.842;4.450;2022-07-03T08:07:34;19.40;99.90
32977;DHT22;47687;50.842;4.450;2022-07-03T08:09:59;19.30;99.90
32977;DHT22;47687;50.842;4.450;2022-07-03T08:12:25;19.50;99.90
32977;DHT22;47687;50.842;4.450;2022-07-03T08:14:50;19.60;99.90
32977;DHT22;47687;50.842;4.450;2022-07-03T08:17:16;19.60;99.90
32977;DHT22;47687;50.842;4.450;2022-07-03T08:19:41;19.30;99.90
32977;DHT22;47687;50.842;4.450;2022-07-03T08:22:08;18.90;99.90
32977;DHT22;47687;50.842;4.450;2022-07-03T08:24:34;18.70;99.90
32977;DHT22;47687;50.842;4.450;2022-07-03T08:26:59;18.80;99.90
32977;DHT22;47687;50.842;4.450;2022-07-03T08:29:25;19.10;99.90
32977;DHT22;47687;50.842;4.450;2022-07-03T08:31:51;19.40;99.90
32977;DHT22;47687;50.842;4.450;2022-07-03T08:34:16;19.90;99.90
32977;DHT22;47687;50.842;4.450;2022-07-03T08:36:42;20.60;99.90
32977;DHT22;47687;50.842;4.450;2022-07-03T08:39:08;21.20;99.00
32977;DHT22;47687;50.842;4.450;2022-07-03T08:41:36;21.80;97.80
32977;DHT22;47687;50.842;4.450;2022-07-03T08:44:04;22.30;96.50
32977;DHT22;47687;50.842;4.450;2022-07-03T08:46:31;22.60;95.80
32977;DHT22;47687;50.842;4.450;2022-07-03T08:48:59;22.90;95.30
32977;DHT22;47687;50.842;4.450;2022-07-03T08:51:30;23.20;95.10
32977;DHT22;47687;50.842;4.450;2022-07-03T08:53:59;23.40;94.70
32977;DHT22;47687;50.842;4.450;2022-07-03T08:56:27;23.40;93.90
32977;DHT22;47687;50.842;4.450;2022-07-03T08:58:53;23.40;94.20
32977;DHT22;47687;50.842;4.450;2022-07-03T09:01:19;23.30;94.00
32977;DHT22;47687;50.842;4.450;2022-07-03T09:03:45;22.90;94.40
32977;DHT22;47687;50.842;4.450;2022-07-03T09:06:14;22.90;94.60
32977;DHT22;47687;50.842;4.450;2022-07-03T09:08:40;23.10;94.40
32977;DHT22;47687;50.842;4.450;2022-07-03T09:11:06;23.30;94.10
32977;DHT22;47687;50.842;4.450;2022-07-03T09:13:32;23.50;93.90
32977;DHT22;47687;50.842;4.450;2022-07-03T09:15:58;23.40;93.70
32977;DHT22;47687;50.842;4.450;2022-07-03T09:18:42;23.50;93.70
32977;DHT22;47687;50.842;4.450;2022-07-03T09:21:08;23.50;93.20
32977;DHT22;47687;50.842;4.450;2022-07-03T09:23:41;23.50;93.10
32977;DHT22;47687;50.842;4.450;2022-07-03T09:26:13;23.20;92.70
32977;DHT22;47687;50.842;4.450;2022-07-03T09:28:47;22.90;93.00
32977;DHT22;47687;50.842;4.450;2022-07-03T09:31:15;22.60;93.50
32977;DHT22;47687;50.842;4.450;2022-07-03T09:36:47;22.00;94.70
32977;DHT22;47687;50.842;4.450;2022-07-03T09:39:15;22.60;94.50
32977;DHT22;47687;50.842;4.450;2022-07-03T09:44:31;23.60;92.50
32977;DHT22;47687;50.842;4.450;2022-07-03T09:47:13;24.10;92.60
32977;DHT22;47687;50.842;4.450;2022-07-03T09:49:59;24.50;91.80
32977;DHT22;47687;50.842;4.450;2022-07-03T09:52:41;24.40;91.20
32977;DHT22;47687;50.842;4.450;2022-07-03T10:00:23;23.10;91.20
32977;DHT22;47687;50.842;4.450;2022-07-03T10:03:02;23.00;92.00
32977;DHT22;47687;50.842;4.450;2022-07-03T10:05:36;23.50;91.40
32977;DHT22;47687;50.842;4.450;2022-07-03T10:08:08;23.80;91.30
32977;DHT22;47687;50.842;4.450;2022-07-03T10:10:35;24.10;91.00
32977;DHT22;47687;50.842;4.450;2022-07-03T10:13:02;23.90;91.30
32977;DHT22;47687;50.842;4.450;2022-07-03T10:15:29;24.00;90.80
32977;DHT22;47687;50.842;4.450;2022-07-03T10:17:56;24.10;91.00
32977;DHT22;47687;50.842;4.450;2022-07-03T10:20:42;24.10;89.90
32977;DHT22;47687;50.842;4.450;2022-07-03T10:23:10;23.90;90.30
32977;DHT22;47687;50.842;4.450;2022-07-03T10:25:39;23.40;90.30
32977;DHT22;47687;50.842;4.450;2022-07-03T10:28:06;22.90;91.20
32977;DHT22;47687;50.842;4.450;2022-07-03T10:30:32;22.70;91.10
32977;DHT22;47687;50.842;4.450;2022-07-03T10:32:59;22.70;91.00
32977;DHT22;47687;50.842;4.450;2022-07-03T10:35:32;22.60;90.50
32977;DHT22;47687;50.842;4.450;2022-07-03T10:43:46;22.70;89.40
32977;DHT22;47687;50.842;4.450;2022-07-03T10:46:31;23.10;89.10
32977;DHT22;47687;50.842;4.450;2022-07-03T10:51:31;24.20;85.90
32977;DHT22;47687;50.842;4.450;2022-07-03T11:02:32;24.70;82.90
32977;DHT22;47687;50.842;4.450;2022-07-03T11:08:11;24.10;83.10
32977;DHT22;47687;50.842;4.450;2022-07-03T11:15:52;22.70;88.10
32977;DHT22;47687;50.842;4.450;2022-07-03T11:18:29;22.30;89.40
32977;DHT22;47687;50.842;4.450;2022-07-03T11:21:05;22.30;89.00
32977;DHT22;47687;50.842;4.450;2022-07-03T11:23:40;22.60;86.70
32977;DHT22;47687;50.842;4.450;2022-07-03T11:33:46;23.30;84.80
32977;DHT22;47687;50.842;4.450;2022-07-03T11:36:30;23.50;83.50
32977;DHT22;47687;50.842;4.450;2022-07-03T11:41:45;23.90;83.20
32977;DHT22;47687;50.842;4.450;2022-07-03T11:44:17;24.30;83.70
32977;DHT22;47687;50.842;4.450;2022-07-03T11:46:47;24.70;82.40
32977;DHT22;47687;50.842;4.450;2022-07-03T11:49:18;24.50;81.80
32977;DHT22;47687;50.842;4.450;2022-07-03T11:54:24;24.40;83.00
32977;DHT22;47687;50.842;4.450;2022-07-03T11:56:50;24.40;83.30
32977;DHT22;47687;50.842;4.450;2022-07-03T11:59:17;23.80;80.70
32977;DHT22;47687;50.842;4.450;2022-07-03T12:01:43;23.90;84.10
32977;DHT22;47687;50.842;4.450;2022-07-03T12:04:09;24.00;83.70
32977;DHT22;47687;50.842;4.450;2022-07-03T12:06:44;23.80;83.50
32977;DHT22;47687;50.842;4.450;2022-07-03T12:11:58;23.90;83.40
32977;DHT22;47687;50.842;4.450;2022-07-03T12:14:34;24.10;81.70
32977;DHT22;47687;50.842;4.450;2022-07-03T12:17:00;24.30;81.40
32977;DHT22;47687;50.842;4.450;2022-07-03T12:19:25;24.50;80.00
32977;DHT22;47687;50.842;4.450;2022-07-03T12:21:51;24.70;79.00
32977;DHT22;47687;50.842;4.450;2022-07-03T12:24:16;24.80;77.90
32977;DHT22;47687;50.842;4.450;2022-07-03T12:26:42;25.10;77.70
32977;DHT22;47687;50.842;4.450;2022-07-03T12:29:13;25.30;77.60
32977;DHT22;47687;50.842;4.450;2022-07-03T12:31:41;25.40;76.70
32977;DHT22;47687;50.842;4.450;2022-07-03T12:34:07;25.10;76.40
32977;DHT22;47687;50.842;4.450;2022-07-03T12:36:33;25.00;74.80
32977;DHT22;47687;50.842;4.450;2022-07-03T12:38:59;25.00;76.30
32977;DHT22;47687;50.842;4.450;2022-07-03T12:41:28;24.90;75.30
32977;DHT22;47687;50.842;4.450;2022-07-03T12:43:55;25.00;74.70
32977;DHT22;47687;50.842;4.450;2022-07-03T12:51:35;25.80;72.50
32977;DHT22;47687;50.842;4.450;2022-07-03T12:54:03;26.20;71.90
32977;DHT22;47687;50.842;4.450;2022-07-03T12:56:28;25.20;72.60
32977;DHT22;47687;50.842;4.450;2022-07-03T12:58:54;24.20;76.20
32977;DHT22;47687;50.842;4.450;2022-07-03T13:01:38;24.30;76.20
32977;DHT22;47687;50.842;4.450;2022-07-03T13:04:06;23.90;76.10
32977;DHT22;47687;50.842;4.450;2022-07-03T13:06:34;23.70;75.90
32977;DHT22;47687;50.842;4.450;2022-07-03T13:09:04;23.90;76.30
32977;DHT22;47687;50.842;4.450;2022-07-03T13:11:40;24.30;76.40
32977;DHT22;47687;50.842;4.450;2022-07-03T13:16:46;24.70;74.10
32977;DHT22;47687;50.842;4.450;2022-07-03T13:19:18;24.50;76.20
32977;DHT22;47687;50.842;4.450;2022-07-03T13:21:44;25.00;75.70
32977;DHT22;47687;50.842;4.450;2022-07-03T13:24:11;25.50;73.90
32977;DHT22;47687;50.842;4.450;2022-07-03T13:26:37;25.00;74.70
32977;DHT22;47687;50.842;4.450;2022-07-03T13:29:03;24.90;75.30
32977;DHT22;47687;50.842;4.450;2022-07-03T13:31:29;24.70;74.90
32977;DHT22;47687;50.842;4.450;2022-07-03T13:33:56;24.80;76.00
32977;DHT22;47687;50.842;4.450;2022-07-03T13:36:22;24.60;75.00
32977;DHT22;47687;50.842;4.450;2022-07-03T13:38:48;24.20;75.60
32977;DHT22;47687;50.842;4.450;2022-07-03T13:41:14;23.90;77.20
32977;DHT22;47687;50.842;4.450;2022-07-03T13:43:39;23.10;79.00
32977;DHT22;47687;50.842;4.450;2022-07-03T13:46:05;23.30;80.70
32977;DHT22;47687;50.842;4.450;2022-07-03T13:48:30;23.80;79.30
32977;DHT22;47687;50.842;4.450;2022-07-03T13:50:56;24.60;78.00
32977;DHT22;47687;50.842;4.450;2022-07-03T13:53:22;24.90;75.50
32977;DHT22;47687;50.842;4.450;2022-07-03T13:55:48;25.30;75.70
32977;DHT22;47687;50.842;4.450;2022-07-03T13:58:13;25.80;73.50
32977;DHT22;47687;50.842;4.450;2022-07-03T14:00:39;25.10;74.40
32977;DHT22;47687;50.842;4.450;2022-07-03T14:03:05;24.30;75.80
32977;DHT22;47687;50.842;4.450;2022-07-03T14:05:31;24.40;76.00
32977;DHT22;47687;50.842;4.450;2022-07-03T14:07:56;24.30;77.20
32977;DHT22;47687;50.842;4.450;2022-07-03T14:10:22;24.80;76.70
32977;DHT22;47687;50.842;4.450;2022-07-03T14:12:50;24.30;75.30
32977;DHT22;47687;50.842;4.450;2022-07-03T14:15:16;23.60;78.00
32977;DHT22;47687;50.842;4.450;2022-07-03T14:17:42;22.90;78.50
32977;DHT22;47687;50.842;4.450;2022-07-03T14:20:09;22.60;80.40
32977;DHT22;47687;50.842;4.450;2022-07-03T14:22:35;22.80;79.40
32977;DHT22;47687;50.842;4.450;2022-07-03T14:25:01;23.20;78.60
32977;DHT22;47687;50.842;4.450;2022-07-03T14:27:26;23.10;77.40
32977;DHT22;47687;50.842;4.450;2022-07-03T14:30:11;23.40;77.60
32977;DHT22;47687;50.842;4.450;2022-07-03T14:32:55;23.60;76.90
32977;DHT22;47687;50.842;4.450;2022-07-03T14:35:21;24.30;76.50
32977;DHT22;47687;50.842;4.450;2022-07-03T14:37:46;24.90;74.50
32977;DHT22;47687;50.842;4.450;2022-07-03T14:40:12;24.00;76.00
32977;DHT22;47687;50.842;4.450;2022-07-03T14:42:37;23.10;78.00
32977;DHT22;47687;50.842;4.450;2022-07-03T14:45:04;22.80;78.90
32977;DHT22;47687;50.842;4.450;2022-07-03T14:47:30;23.10;78.40
32977;DHT22;47687;50.842;4.450;2022-07-03T14:49:55;23.30;77.80
32977;DHT22;47687;50.842;4.450;2022-07-03T14:52:21;23.90;76.30
32977;DHT22;47687;50.842;4.450;2022-07-03T14:54:47;24.30;75.00
32977;DHT22;47687;50.842;4.450;2022-07-03T15:05:13;25.50;72.50
32977;DHT22;47687;50.842;4.450;2022-07-03T15:08:27;26.20;72.20
32977;DHT22;47687;50.842;4.450;2022-07-03T15:10:26;26.50;70.30
32977;DHT22;47687;50.842;4.450;2022-07-03T15:12:53;25.90;72.30
32977;DHT22;47687;50.842;4.450;2022-07-03T15:15:20;26.00;73.10
32977;DHT22;47687;50.842;4.450;2022-07-03T15:17:50;26.50;72.10
32977;DHT22;47687;50.842;4.450;2022-07-03T15:20:17;26.70;70.30
32977;DHT22;47687;50.842;4.450;2022-07-03T15:22:44;26.20;71.90
32977;DHT22;47687;50.842;4.450;2022-07-03T15:25:14;25.70;71.40
32977;DHT22;47687;50.842;4.450;2022-07-03T15:27:41;25.50;72.30
32977;DHT22;47687;50.842;4.450;2022-07-03T15:30:08;25.80;72.70
32977;DHT22;47687;50.842;4.450;2022-07-03T15:32:36;26.40;72.40
32977;DHT22;47687;50.842;4.450;2022-07-03T15:35:02;26.80;70.30
32977;DHT22;47687;50.842;4.450;2022-07-03T15:40:05;27.30;68.60
32977;DHT22;47687;50.842;4.450;2022-07-03T15:42:55;26.50;69.40
32977;DHT22;47687;50.842;4.450;2022-07-03T15:48:17;25.30;70.70
32977;DHT22;47687;50.842;4.450;2022-07-03T15:53:39;24.10;73.30
32977;DHT22;47687;50.842;4.450;2022-07-03T15:56:07;24.00;73.30
32977;DHT22;47687;50.842;4.450;2022-07-03T15:58:35;23.80;73.50
32977;DHT22;47687;50.842;4.450;2022-07-03T16:01:05;23.80;74.20
32977;DHT22;47687;50.842;4.450;2022-07-03T16:04:07;24.10;72.90
32977;DHT22;47687;50.842;4.450;2022-07-03T16:06:37;23.60;73.20
32977;DHT22;47687;50.842;4.450;2022-07-03T16:09:03;23.70;73.60
32977;DHT22;47687;50.842;4.450;2022-07-03T16:11:29;23.20;73.70
32977;DHT22;47687;50.842;4.450;2022-07-03T16:13:57;22.80;74.70
32977;DHT22;47687;50.842;4.450;2022-07-03T16:16:28;22.80;75.00
32977;DHT22;47687;50.842;4.450;2022-07-03T16:18:54;23.30;74.30
32977;DHT22;47687;50.842;4.450;2022-07-03T16:21:21;23.60;73.70
32977;DHT22;47687;50.842;4.450;2022-07-03T16:23:49;25.10;71.90
32977;DHT22;47687;50.842;4.450;2022-07-03T16:26:16;26.40;70.40
32977;DHT22;47687;50.842;4.450;2022-07-03T16:28:42;26.50;67.50
32977;DHT22;47687;50.842;4.450;2022-07-03T16:31:12;26.00;67.90
32977;DHT22;47687;50.842;4.450;2022-07-03T16:33:42;25.00;71.40
32977;DHT22;47687;50.842;4.450;2022-07-03T16:36:14;24.60;73.10
32977;DHT22;47687;50.842;4.450;2022-07-03T16:38:44;24.60;73.40
32977;DHT22;47687;50.842;4.450;2022-07-03T16:41:12;24.90;73.90
32977;DHT22;47687;50.842;4.450;2022-07-03T16:43:42;24.90;73.90
32977;DHT22;47687;50.842;4.450;2022-07-03T16:46:10;24.90;72.60
32977;DHT22;47687;50.842;4.450;2022-07-03T16:48:43;24.20;74.50
32977;DHT22;47687;50.842;4.450;2022-07-03T16:51:13;24.90;74.40
32977;DHT22;47687;50.842;4.450;2022-07-03T16:53:39;26.00;71.90
32977;DHT22;47687;50.842;4.450;2022-07-03T16:56:06;25.90;69.20
32977;DHT22;47687;50.842;4.450;2022-07-03T16:58:32;26.40;69.90
32977;DHT22;47687;50.842;4.450;2022-07-03T17:01:04;26.90;68.80
32977;DHT22;47687;50.842;4.450;2022-07-03T17:03:30;27.10;67.50
32977;DHT22;47687;50.842;4.450;2022-07-03T17:05:57;26.00;68.50
32977;DHT22;47687;50.842;4.450;2022-07-03T17:08:23;25.40;69.10
32977;DHT22;47687;50.842;4.450;2022-07-03T17:10:50;25.00;70.00
32977;DHT22;47687;50.842;4.450;2022-07-03T17:13:16;26.30;69.90
32977;DHT22;47687;50.842;4.450;2022-07-03T17:15:43;26.90;67.50
32977;DHT22;47687;50.842;4.450;2022-07-03T17:18:09;25.90;68.30
32977;DHT22;47687;50.842;4.450;2022-07-03T17:20:45;24.90;70.60
32977;DHT22;47687;50.842;4.450;2022-07-03T17:23:14;24.40;72.00